sensor_id;sensor_type;location;lat;lon;timestamp;pressure;altitude;pressure_sealevel;temperature;humidity
5500;BME280;2772;42.700;23.304;2024-03-22T00:00:47;95216.34;;;10.21;59.27
5500;BME280;2772;42.700;23.304;2024-03-22T00:03:14;95213.50;;;10.17;60.80
5500;BME280;2772;42.700;23.304;2024-03-22T00:05:40;95209.75;;;10.18;62.89
5500;BME280;2772;42.700;23.304;2024-03-22T00:08:09;95213.09;;;10.10;63.02
5500;BME280;2772;42.700;23.304;2024-03-22T00:10:36;95216.75;;;10.14;61.63
5500;BME280;2772;42.700;23.304;2024-03-22T00:13:03;95218.63;;;10.00;60.24
5500;BME280;2772;42.700;23.304;2024-03-22T00:15:28;95216.47;;;10.02;63.94
5500;BME280;2772;42.700;23.304;2024-03-22T00:17:57;95215.28;;;9.95;63.36
5500;BME280;2772;42.700;23.304;2024-03-22T00:20:27;95206.41;;;9.99;65.01
5500;BME280;2772;42.700;23.304;2024-03-22T00:22:54;95206.53;;;9.94;65.78
5500;BME280;2772;42.700;23.304;2024-03-22T00:25:20;95213.06;;;9.88;67.31
5500;BME280;2772;42.700;23.304;2024-03-22T00:27:48;95214.03;;;9.92;65.14
5500;BME280;2772;42.700;23.304;2024-03-22T00:30:14;95211.75;;;9.86;64.65
5500;BME280;2772;42.700;23.304;2024-03-22T00:32:40;95213.81;;;9.89;66.24
5500;BME280;2772;42.700;23.304;2024-03-22T00:35:09;95223.09;;;9.78;69.85
5500;BME280;2772;42.700;23.304;2024-03-22T00:37:37;95214.75;;;9.71;70.63
5500;BME280;2772;42.700;23.304;2024-03-22T00:40:06;95223.09;;;9.78;69.22
5500;BME280;2772;42.700;23.304;2024-03-22T00:42:32;95218.97;;;9.72;68.96
5500;BME280;2772;42.700;23.304;2024-03-22T00:44:58;95221.84;;;9.75;68.78
5500;BME280;2772;42.700;23.304;2024-03-22T00:47:25;95215.53;;;9.71;69.45
5500;BME280;2772;42.700;23.304;2024-03-22T00:49:51;95218.31;;;9.66;67.56
5500;BME280;2772;42.700;23.304;2024-03-22T00:52:17;95220.25;;;9.60;69.74
5500;BME280;2772;42.700;23.304;2024-03-22T00:54:45;95217.13;;;9.45;73.57
5500;BME280;2772;42.700;23.304;2024-03-22T00:57:18;95218.91;;;9.49;74.12
5500;BME280;2772;42.700;23.304;2024-03-22T00:59:44;95213.97;;;9.43;72.93
5500;BME280;2772;42.700;23.304;2024-03-22T01:02:10;95211.13;;;9.26;74.29
5500;BME280;2772;42.700;23.304;2024-03-22T01:04:37;95211.22;;;9.21;74.74
5500;BME280;2772;42.700;23.304;2024-03-22T01:07:03;95208.84;;;9.06;75.74
5500;BME280;2772;42.700;23.304;2024-03-22T01:09:30;95205.22;;;9.02;76.57
5500;BME280;2772;42.700;23.304;2024-03-22T01:11:57;95210.09;;;8.81;75.76
5500;BME280;2772;42.700;23.304;2024-03-22T01:14:26;95210.44;;;8.61;76.65
5500;BME280;2772;42.700;23.304;2024-03-22T01:16:52;95211.63;;;8.69;78.57
5500;BME280;2772;42.700;23.304;2024-03-22T01:19:20;95214.06;;;8.65;78.23
5500;BME280;2772;42.700;23.304;2024-03-22T01:21:46;95216.84;;;8.42;78.84
5500;BME280;2772;42.700;23.304;2024-03-22T01:24:13;95224.66;;;8.52;80.49
5500;BME280;2772;42.700;23.304;2024-03-22T01:26:39;95226.03;;;8.49;80.43
5500;BME280;2772;42.700;23.304;2024-03-22T01:29:07;95218.03;;;8.68;80.28
5500;BME280;2772;42.700;23.304;2024-03-22T01:31:32;95224.50;;;8.62;77.97
5500;BME280;2772;42.700;23.304;2024-03-22T01:33:59;95218.25;;;8.53;78.99
5500;BME280;2772;42.700;23.304;2024-03-22T01:36:25;95219.34;;;8.52;79.85
5500;BME280;2772;42.700;23.304;2024-03-22T01:38:52;95212.88;;;8.58;80.44
5500;BME280;2772;42.700;23.304;2024-03-22T01:41:17;95216.44;;;8.67;79.54
5500;BME280;2772;42.700;23.304;2024-03-22T01:43:44;95213.88;;;8.62;79.40
5500;BME280;2772;42.700;23.304;2024-03-22T01:46:12;95211.41;;;8.65;79.11
5500;BME280;2772;42.700;23.304;2024-03-22T01:48:38;95221.94;;;8.57;80.64
5500;BME280;2772;42.700;23.304;2024-03-22T01:51:05;95212.50;;;8.64;80.72
5500;BME280;2772;42.700;23.304;2024-03-22T01:53:32;95206.78;;;8.57;79.83
5500;BME280;2772;42.700;23.304;2024-03-22T01:56:00;95221.44;;;8.36;78.30
5500;BME280;2772;42.700;23.304;2024-03-22T01:58:27;95209.47;;;8.20;78.99
5500;BME280;2772;42.700;23.304;2024-03-22T02:00:54;95208.19;;;8.18;82.30
5500;BME280;2772;42.700;23.304;2024-03-22T02:03:21;95213.00;;;7.97;80.44
5500;BME280;2772;42.700;23.304;2024-03-22T02:05:48;95204.63;;;8.08;83.54
5500;BME280;2772;42.700;23.304;2024-03-22T02:08:14;95207.75;;;8.10;81.79
5500;BME280;2772;42.700;23.304;2024-03-22T02:10:40;95207.25;;;8.08;81.19
5500;BME280;2772;42.700;23.304;2024-03-22T02:13:06;95210.41;;;8.10;80.54
5500;BME280;2772;42.700;23.304;2024-03-22T02:15:33;95213.00;;;7.97;82.19
5500;BME280;2772;42.700;23.304;2024-03-22T02:17:59;95202.44;;;8.10;83.72
5500;BME280;2772;42.700;23.304;2024-03-22T02:20:27;95206.50;;;8.22;83.97
5500;BME280;2772;42.700;23.304;2024-03-22T02:22:52;95219.66;;;8.32;82.80
5500;BME280;2772;42.700;23.304;2024-03-22T02:25:22;95220.66;;;8.36;82.22
5500;BME280;2772;42.700;23.304;2024-03-22T02:27:48;95218.44;;;8.43;81.61
5500;BME280;2772;42.700;23.304;2024-03-22T02:30:15;95223.09;;;8.51;79.87
5500;BME280;2772;42.700;23.304;2024-03-22T02:32:41;95221.56;;;8.45;79.11
5500;BME280;2772;42.700;23.304;2024-03-22T02:35:08;95226.88;;;8.45;82.28
5500;BME280;2772;42.700;23.304;2024-03-22T02:37:34;95223.56;;;8.53;81.91
5500;BME280;2772;42.700;23.304;2024-03-22T02:40:01;95231.81;;;8.51;80.59
5500;BME280;2772;42.700;23.304;2024-03-22T02:42:33;95234.47;;;8.51;82.12
5500;BME280;2772;42.700;23.304;2024-03-22T02:45:00;95226.22;;;8.53;83.16
5500;BME280;2772;42.700;23.304;2024-03-22T02:47:25;95230.84;;;8.47;82.98
5500;BME280;2772;42.700;23.304;2024-03-22T02:49:52;95235.50;;;8.55;81.49
5500;BME280;2772;42.700;23.304;2024-03-22T02:52:18;95235.19;;;8.57;80.74
5500;BME280;2772;42.700;23.304;2024-03-22T02:54:44;95236.22;;;8.42;83.27
5500;BME280;2772;42.700;23.304;2024-03-22T02:57:10;95248.31;;;8.48;82.27
5500;BME280;2772;42.700;23.304;2024-03-22T02:59:38;95246.47;;;8.49;82.00
5500;BME280;2772;42.700;23.304;2024-03-22T03:02:06;95252.94;;;8.43;83.27
5500;BME280;2772;42.700;23.304;2024-03-22T03:04:32;95246.03;;;8.42;85.37
5500;BME280;2772;42.700;23.304;2024-03-22T03:06:58;95251.44;;;8.37;85.77
5500;BME280;2772;42.700;23.304;2024-03-22T03:09:25;95258.03;;;8.39;83.43
5500;BME280;2772;42.700;23.304;2024-03-22T03:11:51;95255.66;;;8.38;83.62
5500;BME280;2772;42.700;23.304;2024-03-22T03:14:17;95251.84;;;8.44;82.05
5500;BME280;2772;42.700;23.304;2024-03-22T03:16:45;95258.09;;;8.34;81.92
5500;BME280;2772;42.700;23.304;2024-03-22T03:19:11;95270.16;;;8.27;82.20
5500;BME280;2772;42.700;23.304;2024-03-22T03:21:37;95262.81;;;8.19;82.74
5500;BME280;2772;42.700;23.304;2024-03-22T03:24:04;95264.19;;;8.16;83.04
5500;BME280;2772;42.700;23.304;2024-03-22T03:26:30;95270.09;;;7.89;83.14
5500;BME280;2772;42.700;23.304;2024-03-22T03:28:56;95276.41;;;7.93;83.22
5500;BME280;2772;42.700;23.304;2024-03-22T03:31:22;95272.94;;;7.74;83.39
5500;BME280;2772;42.700;23.304;2024-03-22T03:33:50;95278.31;;;7.69;85.88
5500;BME280;2772;42.700;23.304;2024-03-22T03:36:16;95278.13;;;7.61;86.02
5500;BME280;2772;42.700;23.304;2024-03-22T03:38:43;95282.63;;;7.60;86.56
5500;BME280;2772;42.700;23.304;2024-03-22T03:41:10;95275.78;;;7.59;87.64
5500;BME280;2772;42.700;23.304;2024-03-22T03:43:37;95278.66;;;7.63;85.51
5500;BME280;2772;42.700;23.304;2024-03-22T03:46:03;95277.47;;;7.50;84.79
5500;BME280;2772;42.700;23.304;2024-03-22T03:48:30;95292.69;;;7.40;85.34
5500;BME280;2772;42.700;23.304;2024-03-22T03:50:57;95288.84;;;7.27;85.35
5500;BME280;2772;42.700;23.304;2024-03-22T03:53:28;95299.28;;;7.14;86.67
5500;BME280;2772;42.700;23.304;2024-03-22T03:55:53;95295.94;;;7.08;86.88
5500;BME280;2772;42.700;23.304;2024-03-22T03:58:20;95298.28;;;7.10;86.76
5500;BME280;2772;42.700;23.304;2024-03-22T04:00:46;95297.44;;;7.14;85.59
5500;BME280;2772;42.700;23.304;2024-03-22T04:03:15;95295.81;;;7.18;85.10
5500;BME280;2772;42.700;23.304;2024-03-22T04:05:41;95303.38;;;7.01;86.90
5500;BME280;2772;42.700;23.304;2024-03-22T04:08:09;95306.69;;;6.88;87.92
5500;BME280;2772;42.700;23.304;2024-03-22T04:10:36;95296.03;;;6.93;87.20
5500;BME280;2772;42.700;23.304;2024-03-22T04:13:03;95309.81;;;6.62;89.82
5500;BME280;2772;42.700;23.304;2024-03-22T04:15:34;95313.19;;;6.72;89.51
5500;BME280;2772;42.700;23.304;2024-03-22T04:18:00;95300.78;;;6.68;89.53
5500;BME280;2772;42.700;23.304;2024-03-22T04:20:26;95308.19;;;6.66;90.25
5500;BME280;2772;42.700;23.304;2024-03-22T04:22:53;95308.97;;;6.71;90.91
5500;BME280;2772;42.700;23.304;2024-03-22T04:25:20;95315.78;;;6.77;90.29
5500;BME280;2772;42.700;23.304;2024-03-22T04:27:47;95310.25;;;6.74;90.23
5500;BME280;2772;42.700;23.304;2024-03-22T04:30:12;95311.75;;;6.85;89.75
5500;BME280;2772;42.700;23.304;2024-03-22T04:32:39;95315.41;;;6.89;88.90
5500;BME280;2772;42.700;23.304;2024-03-22T04:35:06;95325.16;;;6.93;88.93
5500;BME280;2772;42.700;23.304;2024-03-22T04:37:32;95330.72;;;6.92;88.56
5500;BME280;2772;42.700;23.304;2024-03-22T04:39:59;95316.63;;;7.01;88.67
5500;BME280;2772;42.700;23.304;2024-03-22T04:42:27;95336.69;;;7.07;88.21
5500;BME280;2772;42.700;23.304;2024-03-22T04:44:54;95327.22;;;7.01;88.74
5500;BME280;2772;42.700;23.304;2024-03-22T04:47:23;95330.34;;;7.08;88.56
5500;BME280;2772;42.700;23.304;2024-03-22T04:49:48;95330.31;;;7.13;87.17
5500;BME280;2772;42.700;23.304;2024-03-22T04:52:15;95337.22;;;7.09;89.09
5500;BME280;2772;42.700;23.304;2024-03-22T04:54:44;95330.44;;;7.27;95.96
5500;BME280;2772;42.700;23.304;2024-03-22T04:57:10;95330.06;;;7.38;98.56
5500;BME280;2772;42.700;23.304;2024-03-22T04:59:38;95337.56;;;7.55;96.16
5500;BME280;2772;42.700;23.304;2024-03-22T05:02:05;95332.59;;;7.72;100.00
5500;BME280;2772;42.700;23.304;2024-03-22T05:04:30;95330.72;;;7.77;100.00
5500;BME280;2772;42.700;23.304;2024-03-22T05:06:57;95338.28;;;7.84;95.31
5500;BME280;2772;42.700;23.304;2024-03-22T05:09:23;95339.28;;;7.69;88.35
5500;BME280;2772;42.700;23.304;2024-03-22T05:11:50;95346.81;;;7.57;86.97
5500;BME280;2772;42.700;23.304;2024-03-22T05:14:16;95343.94;;;7.54;87.02
5500;BME280;2772;42.700;23.304;2024-03-22T05:16:44;95336.72;;;7.59;86.89
5500;BME280;2772;42.700;23.304;2024-03-22T05:19:10;95345.81;;;7.53;86.63
5500;BME280;2772;42.700;23.304;2024-03-22T05:21:36;95352.31;;;7.37;87.15
5500;BME280;2772;42.700;23.304;2024-03-22T05:24:02;95352.00;;;7.44;86.40
5500;BME280;2772;42.700;23.304;2024-03-22T05:26:29;95361.00;;;7.43;85.74
5500;BME280;2772;42.700;23.304;2024-03-22T05:28:57;95361.00;;;7.43;85.78
5500;BME280;2772;42.700;23.304;2024-03-22T05:31:27;95364.00;;;7.36;86.92
5500;BME280;2772;42.700;23.304;2024-03-22T05:33:54;95359.94;;;7.44;86.18
5500;BME280;2772;42.700;23.304;2024-03-22T05:36:21;95366.53;;;7.46;87.63
5500;BME280;2772;42.700;23.304;2024-03-22T05:38:46;95361.75;;;7.48;88.62
5500;BME280;2772;42.700;23.304;2024-03-22T05:41:13;95372.19;;;7.63;89.60
5500;BME280;2772;42.700;23.304;2024-03-22T05:43:39;95368.59;;;7.78;94.10
5500;BME280;2772;42.700;23.304;2024-03-22T05:46:05;95372.94;;;7.92;89.19
5500;BME280;2772;42.700;23.304;2024-03-22T05:48:31;95358.53;;;7.75;85.59
5500;BME280;2772;42.700;23.304;2024-03-22T05:50:59;95376.09;;;7.94;86.69
5500;BME280;2772;42.700;23.304;2024-03-22T05:53:27;95358.88;;;7.92;85.20
5500;BME280;2772;42.700;23.304;2024-03-22T05:55:53;95377.06;;;8.03;84.63
5500;BME280;2772;42.700;23.304;2024-03-22T05:58:19;95373.78;;;8.12;84.86
5500;BME280;2772;42.700;23.304;2024-03-22T06:00:46;95378.72;;;8.18;84.54
5500;BME280;2772;42.700;23.304;2024-03-22T06:03:13;95372.06;;;8.21;84.20
5500;BME280;2772;42.700;23.304;2024-03-22T06:05:40;95382.16;;;8.24;83.57
5500;BME280;2772;42.700;23.304;2024-03-22T06:08:07;95378.13;;;8.45;84.57
5500;BME280;2772;42.700;23.304;2024-03-22T06:10:34;95377.84;;;8.46;80.41
5500;BME280;2772;42.700;23.304;2024-03-22T06:13:01;95380.91;;;8.58;82.96
5500;BME280;2772;42.700;23.304;2024-03-22T06:15:28;95370.69;;;8.65;81.59
5500;BME280;2772;42.700;23.304;2024-03-22T06:17:54;95368.41;;;8.77;80.83
5500;BME280;2772;42.700;23.304;2024-03-22T06:20:21;95378.19;;;8.82;81.46
5500;BME280;2772;42.700;23.304;2024-03-22T06:22:46;95372.03;;;9.00;82.15
5500;BME280;2772;42.700;23.304;2024-03-22T06:25:15;95373.97;;;9.13;77.09
5500;BME280;2772;42.700;23.304;2024-03-22T06:27:40;95378.69;;;9.16;76.75
5500;BME280;2772;42.700;23.304;2024-03-22T06:30:10;95381.47;;;9.24;76.64
5500;BME280;2772;42.700;23.304;2024-03-22T06:32:36;95374.03;;;9.40;77.94
5500;BME280;2772;42.700;23.304;2024-03-22T06:35:03;95365.22;;;9.44;75.27
5500;BME280;2772;42.700;23.304;2024-03-22T06:37:31;95374.28;;;9.57;73.31
5500;BME280;2772;42.700;23.304;2024-03-22T06:39:57;95371.22;;;9.63;70.72
5500;BME280;2772;42.700;23.304;2024-03-22T06:42:25;95382.66;;;9.64;73.04
5500;BME280;2772;42.700;23.304;2024-03-22T06:44:55;95381.50;;;9.70;70.43
5500;BME280;2772;42.700;23.304;2024-03-22T06:47:21;95375.59;;;9.73;70.45
5500;BME280;2772;42.700;23.304;2024-03-22T06:49:48;95384.94;;;9.84;71.05
5500;BME280;2772;42.700;23.304;2024-03-22T06:52:14;95387.03;;;9.87;72.33
5500;BME280;2772;42.700;23.304;2024-03-22T06:54:41;95398.56;;;9.96;71.35
5500;BME280;2772;42.700;23.304;2024-03-22T06:57:10;95394.81;;;9.97;71.26
5500;BME280;2772;42.700;23.304;2024-03-22T06:59:38;95401.31;;;10.05;69.69
5500;BME280;2772;42.700;23.304;2024-03-22T07:02:04;95394.53;;;9.99;68.47
5500;BME280;2772;42.700;23.304;2024-03-22T07:04:31;95405.50;;;10.11;69.66
5500;BME280;2772;42.700;23.304;2024-03-22T07:07:04;95387.81;;;10.01;70.18
5500;BME280;2772;42.700;23.304;2024-03-22T07:09:34;95403.53;;;10.16;69.47
5500;BME280;2772;42.700;23.304;2024-03-22T07:12:00;95404.13;;;10.27;68.20
5500;BME280;2772;42.700;23.304;2024-03-22T07:14:26;95405.09;;;10.31;68.18
5500;BME280;2772;42.700;23.304;2024-03-22T07:16:53;95404.63;;;10.29;66.35
5500;BME280;2772;42.700;23.304;2024-03-22T07:21:18;95411.41;;;10.21;66.75
5500;BME280;2772;42.700;23.304;2024-03-22T07:23:45;95402.44;;;10.31;65.87
5500;BME280;2772;42.700;23.304;2024-03-22T07:26:11;95397.31;;;10.34;66.41
5500;BME280;2772;42.700;23.304;2024-03-22T07:28:37;95403.50;;;10.43;66.50
5500;BME280;2772;42.700;23.304;2024-03-22T07:31:03;95410.50;;;10.53;65.59
5500;BME280;2772;42.700;23.304;2024-03-22T07:33:31;95409.00;;;10.60;68.27
5500;BME280;2772;42.700;23.304;2024-03-22T07:36:00;95406.53;;;10.64;66.40
5500;BME280;2772;42.700;23.304;2024-03-22T07:38:35;95403.59;;;10.65;66.61
5500;BME280;2772;42.700;23.304;2024-03-22T07:41:00;95410.78;;;10.78;67.50
5500;BME280;2772;42.700;23.304;2024-03-22T07:43:27;95406.09;;;10.84;65.09
5500;BME280;2772;42.700;23.304;2024-03-22T07:45:53;95405.09;;;10.93;64.88
5500;BME280;2772;42.700;23.304;2024-03-22T07:48:19;95405.94;;;11.02;64.70
5500;BME280;2772;42.700;23.304;2024-03-22T07:50:45;95404.09;;;11.03;61.93
5500;BME280;2772;42.700;23.304;2024-03-22T07:53:14;95407.06;;;11.01;63.01
5500;BME280;2772;42.700;23.304;2024-03-22T07:55:42;95406.38;;;11.18;63.63
5500;BME280;2772;42.700;23.304;2024-03-22T07:58:11;95402.34;;;11.20;63.19
5500;BME280;2772;42.700;23.304;2024-03-22T08:00:37;95403.84;;;11.35;64.17
5500;BME280;2772;42.700;23.304;2024-03-22T08:03:04;95405.47;;;11.45;62.40
5500;BME280;2772;42.700;23.304;2024-03-22T08:05:30;95407.19;;;11.41;61.78
5500;BME280;2772;42.700;23.304;2024-03-22T08:07:57;95397.78;;;11.43;61.02
5500;BME280;2772;42.700;23.304;2024-03-22T08:10:24;95404.09;;;11.47;60.31
5500;BME280;2772;42.700;23.304;2024-03-22T08:12:52;95410.16;;;11.61;61.57
5500;BME280;2772;42.700;23.304;2024-03-22T08:15:18;95405.50;;;11.67;59.80
5500;BME280;2772;42.700;23.304;2024-03-22T08:17:45;95401.06;;;11.62;58.73
5500;BME280;2772;42.700;23.304;2024-03-22T08:20:11;95405.69;;;11.70;57.99
5500;BME280;2772;42.700;23.304;2024-03-22T08:22:38;95399.44;;;11.75;59.17
5500;BME280;2772;42.700;23.304;2024-03-22T08:25:04;95398.06;;;11.86;58.20
5500;BME280;2772;42.700;23.304;2024-03-22T08:27:32;95392.03;;;11.72;56.71
5500;BME280;2772;42.700;23.304;2024-03-22T08:30:00;95393.78;;;11.76;58.82
5500;BME280;2772;42.700;23.304;2024-03-22T08:32:27;95389.75;;;11.87;59.70
5500;BME280;2772;42.700;23.304;2024-03-22T08:34:55;95390.13;;;11.94;58.88
5500;BME280;2772;42.700;23.304;2024-03-22T08:37:22;95390.16;;;12.03;58.34
5500;BME280;2772;42.700;23.304;2024-03-22T08:39:48;95384.81;;;12.03;57.22
5500;BME280;2772;42.700;23.304;2024-03-22T08:42:15;95391.09;;;12.07;56.70
5500;BME280;2772;42.700;23.304;2024-03-22T08:44:41;95388.91;;;12.09;55.80
5500;BME280;2772;42.700;23.304;2024-03-22T08:47:09;95391.94;;;12.16;57.46
5500;BME280;2772;42.700;23.304;2024-03-22T08:49:35;95396.66;;;12.19;55.80
5500;BME280;2772;42.700;23.304;2024-03-22T08:52:02;95393.84;;;12.24;56.28
5500;BME280;2772;42.700;23.304;2024-03-22T08:54:30;95385.06;;;12.32;55.90
5500;BME280;2772;42.700;23.304;2024-03-22T08:56:58;95392.16;;;12.36;54.75
5500;BME280;2772;42.700;23.304;2024-03-22T08:59:24;95388.09;;;12.39;55.03
5500;BME280;2772;42.700;23.304;2024-03-22T09:01:51;95384.97;;;12.45;54.15
5500;BME280;2772;42.700;23.304;2024-03-22T09:04:19;95392.03;;;12.50;55.31
5500;BME280;2772;42.700;23.304;2024-03-22T09:06:48;95389.53;;;12.53;53.05
5500;BME280;2772;42.700;23.304;2024-03-22T09:09:14;95377.88;;;12.41;53.57
5500;BME280;2772;42.700;23.304;2024-03-22T09:11:41;95390.13;;;12.42;52.35
5500;BME280;2772;42.700;23.304;2024-03-22T09:14:08;95371.44;;;12.42;53.47
5500;BME280;2772;42.700;23.304;2024-03-22T09:16:35;95378.50;;;12.38;53.13
5500;BME280;2772;42.700;23.304;2024-03-22T09:19:01;95373.63;;;12.40;53.68
5500;BME280;2772;42.700;23.304;2024-03-22T09:21:29;95368.47;;;12.52;53.46
5500;BME280;2772;42.700;23.304;2024-03-22T09:23:57;95368.31;;;12.57;53.00
5500;BME280;2772;42.700;23.304;2024-03-22T09:26:25;95366.13;;;12.50;52.97
5500;BME280;2772;42.700;23.304;2024-03-22T09:28:53;95371.16;;;12.60;51.34
5500;BME280;2772;42.700;23.304;2024-03-22T09:31:19;95368.66;;;12.64;51.51
5500;BME280;2772;42.700;23.304;2024-03-22T09:33:46;95361.88;;;12.66;51.37
5500;BME280;2772;42.700;23.304;2024-03-22T09:36:12;95362.09;;;12.78;52.35
5500;BME280;2772;42.700;23.304;2024-03-22T09:38:40;95364.88;;;12.82;51.49
5500;BME280;2772;42.700;23.304;2024-03-22T09:41:06;95362.56;;;12.89;50.62
5500;BME280;2772;42.700;23.304;2024-03-22T09:43:34;95363.34;;;12.98;52.04
5500;BME280;2772;42.700;23.304;2024-03-22T09:46:01;95353.28;;;13.04;52.03
5500;BME280;2772;42.700;23.304;2024-03-22T09:48:29;95348.41;;;13.06;51.48
5500;BME280;2772;42.700;23.304;2024-03-22T09:50:55;95356.28;;;13.02;51.85
5500;BME280;2772;42.700;23.304;2024-03-22T09:53:22;95346.84;;;13.05;51.26
5500;BME280;2772;42.700;23.304;2024-03-22T09:55:49;95348.44;;;13.14;52.54
5500;BME280;2772;42.700;23.304;2024-03-22T09:58:17;95356.59;;;13.26;53.75
5500;BME280;2772;42.700;23.304;2024-03-22T10:00:43;95344.94;;;13.31;50.51
5500;BME280;2772;42.700;23.304;2024-03-22T10:03:10;95344.00;;;13.18;50.18
5500;BME280;2772;42.700;23.304;2024-03-22T10:05:37;95344.81;;;13.19;51.47
5500;BME280;2772;42.700;23.304;2024-03-22T10:08:04;95346.84;;;13.22;50.94
5500;BME280;2772;42.700;23.304;2024-03-22T10:10:31;95344.50;;;13.03;50.03
5500;BME280;2772;42.700;23.304;2024-03-22T10:13:02;95334.88;;;13.11;49.65
5500;BME280;2772;42.700;23.304;2024-03-22T10:15:30;95339.91;;;13.12;48.52
5500;BME280;2772;42.700;23.304;2024-03-22T10:17:57;95334.25;;;13.14;48.98
5500;BME280;2772;42.700;23.304;2024-03-22T10:20:23;95333.16;;;13.23;49.85
5500;BME280;2772;42.700;23.304;2024-03-22T10:22:55;95330.16;;;13.33;49.44
5500;BME280;2772;42.700;23.304;2024-03-22T10:25:22;95323.66;;;13.43;48.78
5500;BME280;2772;42.700;23.304;2024-03-22T10:27:49;95314.06;;;13.50;49.64
5500;BME280;2772;42.700;23.304;2024-03-22T10:30:17;95307.44;;;13.48;49.35
5500;BME280;2772;42.700;23.304;2024-03-22T10:32:43;95317.06;;;13.49;48.96
5500;BME280;2772;42.700;23.304;2024-03-22T10:35:12;95312.47;;;13.49;48.34
5500;BME280;2772;42.700;23.304;2024-03-22T10:37:39;95307.53;;;13.68;48.72
5500;BME280;2772;42.700;23.304;2024-03-22T10:40:06;95304.38;;;13.75;49.54
5500;BME280;2772;42.700;23.304;2024-03-22T10:42:35;95299.34;;;13.73;47.31
5500;BME280;2772;42.700;23.304;2024-03-22T10:45:01;95301.31;;;13.85;47.46
5500;BME280;2772;42.700;23.304;2024-03-22T10:47:31;95299.13;;;13.87;46.97
5500;BME280;2772;42.700;23.304;2024-03-22T10:50:03;95284.94;;;13.86;46.80
5500;BME280;2772;42.700;23.304;2024-03-22T10:52:33;95287.09;;;14.01;47.23
5500;BME280;2772;42.700;23.304;2024-03-22T10:55:01;95286.44;;;14.04;45.29
5500;BME280;2772;42.700;23.304;2024-03-22T10:57:30;95288.28;;;14.12;45.74
5500;BME280;2772;42.700;23.304;2024-03-22T10:59:56;95281.47;;;14.23;45.03
5500;BME280;2772;42.700;23.304;2024-03-22T11:02:27;95281.28;;;14.28;44.18
5500;BME280;2772;42.700;23.304;2024-03-22T11:04:56;95289.59;;;14.36;43.61
5500;BME280;2772;42.700;23.304;2024-03-22T11:07:28;95290.50;;;14.40;43.26
5500;BME280;2772;42.700;23.304;2024-03-22T11:09:56;95277.44;;;14.38;42.73
5500;BME280;2772;42.700;23.304;2024-03-22T11:12:24;95274.56;;;14.43;42.19
5500;BME280;2772;42.700;23.304;2024-03-22T11:14:51;95257.31;;;14.53;42.97
5500;BME280;2772;42.700;23.304;2024-03-22T11:17:18;95267.38;;;14.56;43.87
5500;BME280;2772;42.700;23.304;2024-03-22T11:19:49;95274.53;;;14.52;44.23
5500;BME280;2772;42.700;23.304;2024-03-22T11:22:19;95247.97;;;14.38;42.76
5500;BME280;2772;42.700;23.304;2024-03-22T11:24:47;95258.16;;;14.45;42.62
5500;BME280;2772;42.700;23.304;2024-03-22T11:27:19;95261.31;;;14.47;42.85
5500;BME280;2772;42.700;23.304;2024-03-22T11:29:48;95261.03;;;14.60;43.78
5500;BME280;2772;42.700;23.304;2024-03-22T11:32:19;95259.69;;;14.75;43.74
5500;BME280;2772;42.700;23.304;2024-03-22T11:34:48;95256.34;;;14.78;42.94
5500;BME280;2772;42.700;23.304;2024-03-22T11:37:15;95244.94;;;14.81;42.81
5500;BME280;2772;42.700;23.304;2024-03-22T11:39:42;95250.34;;;14.93;42.66
5500;BME280;2772;42.700;23.304;2024-03-22T11:42:08;95248.47;;;14.93;42.33
5500;BME280;2772;42.700;23.304;2024-03-22T11:44:39;95242.38;;;15.05;42.45
5500;BME280;2772;42.700;23.304;2024-03-22T11:47:05;95240.03;;;15.03;41.52
5500;BME280;2772;42.700;23.304;2024-03-22T11:49:33;95247.75;;;15.05;40.43
5500;BME280;2772;42.700;23.304;2024-03-22T11:52:00;95237.44;;;15.07;40.68
5500;BME280;2772;42.700;23.304;2024-03-22T11:54:28;95232.06;;;15.07;40.95
5500;BME280;2772;42.700;23.304;2024-03-22T11:56:55;95237.03;;;15.17;41.20
5500;BME280;2772;42.700;23.304;2024-03-22T11:59:23;95239.72;;;15.17;41.03
5500;BME280;2772;42.700;23.304;2024-03-22T12:01:48;95232.56;;;15.21;41.00
5500;BME280;2772;42.700;23.304;2024-03-22T12:04:17;95219.59;;;15.23;40.92
5500;BME280;2772;42.700;23.304;2024-03-22T12:06:43;95221.09;;;15.32;41.64
5500;BME280;2772;42.700;23.304;2024-03-22T12:09:11;95210.38;;;15.44;40.69
5500;BME280;2772;42.700;23.304;2024-03-22T12:11:39;95194.44;;;15.27;40.96
5500;BME280;2772;42.700;23.304;2024-03-22T12:14:08;95195.75;;;15.42;41.97
5500;BME280;2772;42.700;23.304;2024-03-22T12:16:33;95202.41;;;15.36;41.35
5500;BME280;2772;42.700;23.304;2024-03-22T12:19:01;95200.50;;;15.36;40.62
5500;BME280;2772;42.700;23.304;2024-03-22T12:21:28;95207.53;;;15.29;39.88
5500;BME280;2772;42.700;23.304;2024-03-22T12:23:58;95199.34;;;15.25;39.69
5500;BME280;2772;42.700;23.304;2024-03-22T12:26:23;95199.50;;;15.29;39.86
5500;BME280;2772;42.700;23.304;2024-03-22T12:28:51;95193.94;;;15.46;40.34
5500;BME280;2772;42.700;23.304;2024-03-22T12:31:17;95186.00;;;15.49;39.66
5500;BME280;2772;42.700;23.304;2024-03-22T12:33:45;95180.22;;;15.59;39.45
5500;BME280;2772;42.700;23.304;2024-03-22T12:36:11;95179.63;;;15.66;39.19
5500;BME280;2772;42.700;23.304;2024-03-22T12:38:37;95182.91;;;15.59;39.24
5500;BME280;2772;42.700;23.304;2024-03-22T12:41:03;95182.56;;;15.61;39.68
5500;BME280;2772;42.700;23.304;2024-03-22T12:43:31;95178.75;;;15.62;39.36
5500;BME280;2772;42.700;23.304;2024-03-22T12:45:59;95175.63;;;15.72;38.49
5500;BME280;2772;42.700;23.304;2024-03-22T12:48:26;95171.34;;;15.71;38.83
5500;BME280;2772;42.700;23.304;2024-03-22T12:50:52;95175.84;;;15.79;38.51
5500;BME280;2772;42.700;23.304;2024-03-22T12:53:18;95160.72;;;15.74;38.45
5500;BME280;2772;42.700;23.304;2024-03-22T12:55:44;95177.84;;;15.82;39.40
5500;BME280;2772;42.700;23.304;2024-03-22T12:58:11;95177.84;;;15.82;39.16
5500;BME280;2772;42.700;23.304;2024-03-22T13:00:37;95165.56;;;15.69;39.16
5500;BME280;2772;42.700;23.304;2024-03-22T13:03:07;95173.84;;;15.64;39.66
5500;BME280;2772;42.700;23.304;2024-03-22T13:05:33;95172.72;;;15.41;39.33
5500;BME280;2772;42.700;23.304;2024-03-22T13:08:01;95170.88;;;15.33;39.46
5500;BME280;2772;42.700;23.304;2024-03-22T13:10:27;95169.75;;;15.34;39.77
5500;BME280;2772;42.700;23.304;2024-03-22T13:12:54;95166.72;;;15.23;39.65
5500;BME280;2772;42.700;23.304;2024-03-22T13:15:19;95159.03;;;15.22;39.64
5500;BME280;2772;42.700;23.304;2024-03-22T13:17:46;95167.75;;;15.31;39.47